createdAt,value
2017-04-12T00:01:20.176Z,4.29
2017-04-12T00:02:18.230Z,5.06
2017-04-12T00:03:16.207Z,5.47
2017-04-12T00:04:14.147Z,4.73
2017-04-12T00:05:12.087Z,3.76
2017-04-12T00:06:10.052Z,4.16
2017-04-12T00:07:08.011Z,4.14
2017-04-12T00:08:05.962Z,3.93
2017-04-12T00:09:04.993Z,4.31
2017-04-12T00:10:03.079Z,4.33
2017-04-12T00:12:23.512Z,3.97
2017-04-12T00:13:21.408Z,4.57
2017-04-12T00:14:19.321Z,4.54
2017-04-12T00:15:17.302Z,4.64
2017-04-12T00:16:15.308Z,4.01
2017-04-12T00:17:18.597Z,4.41
2017-04-12T00:18:16.504Z,4.57
2017-04-12T00:19:14.518Z,4.51
2017-04-12T00:20:12.427Z,4.34
2017-04-12T00:21:10.380Z,3.86
2017-04-12T00:22:08.385Z,4.69
2017-04-12T00:23:06.343Z,4.77
2017-04-12T00:24:04.242Z,4.44
2017-04-12T00:25:02.208Z,4.27
2017-04-12T00:26:00.146Z,4.24
2017-04-12T00:26:58.059Z,4.63
2017-04-12T00:27:55.972Z,4.63
2017-04-12T00:28:53.924Z,4.11
2017-04-12T00:29:51.839Z,4.61
2017-04-12T00:30:49.758Z,3.76
2017-04-12T00:31:47.664Z,5.79
2017-04-12T00:32:45.568Z,3.93
2017-04-12T00:33:43.484Z,3.66
2017-04-12T00:34:41.399Z,5.63
2017-04-12T00:35:39.327Z,5.16
2017-04-12T00:36:37.286Z,3.99
2017-04-12T00:37:35.183Z,5.07
2017-04-12T00:38:33.123Z,4.54
2017-04-12T00:39:31.016Z,4.64
2017-04-12T00:40:28.911Z,4.41
2017-04-12T00:41:26.872Z,5.01
2017-04-12T00:42:24.779Z,3.91
2017-04-12T00:43:22.699Z,3.89
2017-04-12T00:44:20.597Z,5.16
2017-04-12T00:45:18.896Z,3.43
2017-04-12T00:46:16.796Z,5.09
2017-04-12T00:47:14.728Z,4.39
2017-04-12T00:48:12.623Z,4.34
2017-04-12T00:49:10.519Z,4.84
2017-04-12T00:50:08.458Z,4.00
2017-04-12T00:51:06.375Z,4.06
2017-04-12T00:52:04.320Z,4.21
2017-04-12T00:53:02.300Z,5.07
2017-04-12T00:54:00.183Z,4.01
2017-04-12T00:54:58.112Z,4.81
2017-04-12T00:55:56.062Z,4.46
2017-04-12T00:56:53.981Z,3.93
2017-04-12T00:57:51.946Z,4.83
2017-04-12T00:58:49.951Z,3.83
2017-04-12T00:59:47.891Z,3.81
2017-04-12T01:00:45.798Z,4.54
2017-04-12T01:01:43.706Z,3.24
2017-04-12T01:02:41.608Z,4.51
2017-04-12T01:05:02.683Z,6.24
2017-04-12T01:06:06.739Z,7.19
2017-04-12T01:07:04.611Z,4.46
2017-04-12T01:08:02.555Z,4.30
2017-04-12T01:09:00.661Z,3.54
2017-04-12T01:09:58.608Z,4.63
2017-04-12T01:10:56.558Z,4.11
2017-04-12T01:11:54.535Z,4.31
2017-04-12T01:12:52.511Z,4.36
2017-04-12T01:13:50.460Z,4.33
2017-04-12T01:14:48.377Z,5.27
2017-04-12T01:15:46.280Z,4.29
2017-04-12T01:16:44.442Z,4.06
2017-04-12T01:17:42.388Z,4.00
2017-04-12T01:18:40.275Z,4.14
2017-04-12T01:19:38.235Z,5.01
2017-04-12T01:20:36.186Z,4.66
2017-04-12T01:21:34.102Z,4.76
2017-04-12T01:22:32.207Z,4.14
2017-04-12T01:23:30.129Z,4.40
2017-04-12T01:24:28.163Z,3.93
2017-04-12T01:25:26.035Z,7.20
2017-04-12T01:26:23.922Z,4.09
2017-04-12T01:27:21.826Z,3.89
2017-04-12T01:28:19.718Z,3.84
2017-04-12T01:29:17.611Z,4.41
2017-04-12T01:30:15.571Z,3.93
2017-04-12T01:31:13.568Z,3.97
2017-04-12T01:32:11.447Z,4.69
2017-04-12T01:33:09.355Z,3.30
2017-04-12T01:34:07.311Z,3.96
2017-04-12T01:35:05.223Z,5.03
2017-04-12T01:36:03.146Z,5.41
2017-04-12T01:37:01.052Z,3.59
2017-04-12T01:37:58.973Z,3.46
2017-04-12T01:38:56.861Z,4.47
2017-04-12T01:39:54.750Z,4.23
2017-04-12T01:40:52.679Z,4.61
2017-04-12T01:41:50.571Z,4.47
2017-04-12T01:42:48.486Z,3.46
2017-04-12T01:43:46.387Z,4.73
2017-04-12T01:44:44.292Z,3.56
2017-04-12T01:45:42.307Z,3.97
2017-04-12T01:46:40.223Z,4.34
2017-04-12T01:47:38.134Z,4.49
2017-04-12T01:48:36.064Z,4.21
2017-04-12T01:49:33.990Z,4.19
2017-04-12T01:50:31.874Z,3.56
2017-04-12T01:51:29.855Z,3.50
2017-04-12T01:52:27.787Z,4.49
2017-04-12T01:53:25.739Z,4.93
2017-04-12T01:54:23.686Z,6.91
2017-04-12T01:55:21.659Z,4.54
2017-04-12T01:56:19.580Z,4.24
2017-04-12T01:57:17.564Z,4.40
2017-04-12T01:58:15.447Z,4.29
2017-04-12T01:59:13.335Z,4.06
2017-04-12T02:00:11.232Z,3.64
2017-04-12T02:01:09.135Z,4.04
2017-04-12T02:02:07.067Z,3.80
2017-04-12T02:03:04.962Z,4.04
2017-04-12T02:04:02.858Z,3.83
2017-04-12T02:05:00.763Z,4.00
2017-04-12T02:05:58.786Z,3.71
2017-04-12T02:06:56.675Z,4.16
2017-04-12T02:07:54.579Z,4.36
2017-04-12T02:08:52.494Z,6.36
2017-04-12T02:09:50.411Z,3.79
2017-04-12T02:10:48.310Z,4.47
2017-04-12T02:11:46.219Z,3.36
2017-04-12T02:12:44.115Z,4.34
2017-04-12T02:13:42.068Z,3.90
2017-04-12T02:14:39.999Z,3.51
2017-04-12T02:15:37.891Z,3.59
2017-04-12T02:16:35.818Z,4.23
2017-04-12T02:17:34.132Z,3.13
2017-04-12T02:18:32.043Z,3.03
2017-04-12T02:19:30.011Z,4.03
2017-04-12T02:20:27.963Z,4.26
2017-04-12T02:21:25.887Z,3.76
2017-04-12T02:22:23.819Z,3.46
2017-04-12T02:23:21.732Z,3.76
2017-04-12T02:24:19.699Z,3.86
2017-04-12T02:25:17.639Z,3.33
2017-04-12T02:26:15.568Z,4.31
2017-04-12T02:27:13.472Z,4.60
2017-04-12T02:28:11.423Z,4.87
2017-04-12T02:29:09.375Z,3.69
2017-04-12T02:30:07.313Z,4.21
2017-04-12T02:31:05.226Z,3.84
2017-04-12T02:32:03.164Z,4.97
2017-04-12T02:33:01.079Z,4.11
2017-04-12T02:33:58.975Z,3.91
2017-04-12T02:34:56.863Z,3.66
2017-04-12T02:35:54.819Z,4.03
2017-04-12T02:36:52.748Z,4.26
2017-04-12T02:37:50.675Z,3.64
2017-04-12T02:38:48.610Z,4.64
2017-04-12T02:39:46.615Z,3.76
2017-04-12T02:40:44.563Z,3.74
2017-04-12T02:41:42.475Z,3.70
2017-04-12T02:42:40.508Z,4.01
2017-04-12T02:43:38.400Z,3.69
2017-04-12T02:44:36.324Z,3.87
2017-04-12T02:45:34.242Z,4.26
2017-04-12T02:46:32.198Z,6.86
2017-04-12T02:47:30.100Z,4.06
2017-04-12T02:48:28.055Z,4.17
2017-04-12T02:49:25.946Z,4.24
2017-04-12T02:50:23.868Z,4.20
2017-04-12T02:51:21.759Z,4.13
2017-04-12T02:52:19.692Z,4.84
2017-04-12T02:53:17.591Z,4.39
2017-04-12T02:54:15.492Z,3.84
2017-04-12T02:55:13.386Z,4.00
2017-04-12T02:56:11.296Z,4.13
2017-04-12T02:57:09.217Z,4.34
2017-04-12T02:58:07.198Z,2.94
2017-04-12T02:59:05.088Z,4.34
2017-04-12T03:00:03.047Z,4.27
2017-04-12T03:01:01.042Z,3.96
2017-04-12T03:01:58.913Z,3.46
2017-04-12T03:02:56.848Z,5.30
2017-04-12T03:03:54.786Z,3.74
2017-04-12T03:04:52.751Z,4.26
2017-04-12T03:05:50.702Z,3.73
2017-04-12T03:06:48.599Z,3.97
2017-04-12T03:07:46.495Z,4.13
2017-04-12T03:08:44.405Z,4.36
2017-04-12T03:09:42.318Z,4.61
2017-04-12T03:10:40.217Z,4.91
2017-04-12T03:11:38.135Z,4.90
2017-04-12T03:12:36.043Z,4.00
2017-04-12T03:13:33.960Z,3.51
2017-04-12T03:14:31.854Z,3.56
2017-04-12T03:15:29.763Z,3.37
2017-04-12T03:16:27.697Z,3.43
2017-04-12T03:17:25.598Z,3.69
2017-04-12T03:18:23.519Z,4.23
2017-04-12T03:19:21.419Z,4.17
2017-04-12T03:20:19.303Z,4.57
2017-04-12T03:21:17.220Z,4.86
2017-04-12T03:22:15.114Z,3.97
2017-04-12T03:23:13.043Z,4.27
2017-04-12T03:24:10.987Z,3.86
2017-04-12T03:25:08.959Z,4.07
2017-04-12T03:26:06.864Z,4.23
2017-04-12T03:27:04.790Z,3.94
2017-04-12T03:28:02.738Z,3.26
2017-04-12T03:29:00.692Z,3.69
2017-04-12T03:29:58.649Z,3.70
2017-04-12T03:30:56.551Z,3.39
2017-04-12T03:31:54.451Z,3.84
2017-04-12T03:32:52.412Z,3.87
2017-04-12T03:33:50.303Z,4.81
2017-04-12T03:35:04.751Z,4.53
2017-04-12T03:36:02.686Z,3.83
2017-04-12T03:37:00.635Z,3.39
2017-04-12T03:37:58.526Z,3.40
2017-04-12T03:38:56.452Z,4.87
2017-04-12T03:39:54.434Z,3.23
2017-04-12T03:40:52.368Z,4.04
2017-04-12T03:41:50.275Z,4.36
2017-04-12T03:42:48.182Z,3.66
2017-04-12T03:43:46.076Z,3.81
2017-04-12T03:44:44.019Z,3.30
2017-04-12T03:45:41.916Z,3.66
2017-04-12T03:46:39.818Z,3.79
2017-04-12T03:47:37.695Z,3.30
2017-04-12T03:48:35.568Z,3.29
2017-04-12T03:49:33.593Z,3.69
2017-04-12T03:50:31.471Z,3.73
2017-04-12T03:51:29.491Z,3.66
2017-04-12T03:52:27.375Z,4.20
2017-04-12T03:53:25.276Z,3.97
2017-04-12T03:54:23.183Z,4.03
2017-04-12T03:55:21.064Z,4.03
2017-04-12T03:56:18.987Z,3.93
2017-04-12T03:57:16.910Z,3.63
2017-04-12T03:58:14.799Z,3.39
2017-04-12T03:59:12.696Z,4.16
2017-04-12T04:00:10.715Z,3.63
2017-04-12T04:01:08.625Z,3.56
2017-04-12T04:02:06.541Z,3.64
2017-04-12T04:03:04.514Z,3.86
2017-04-12T04:04:02.400Z,3.64
2017-04-12T04:05:00.316Z,3.94
2017-04-12T04:05:58.203Z,3.70
2017-04-12T04:06:56.119Z,3.67
2017-04-12T04:07:54.059Z,3.37
2017-04-12T04:08:51.954Z,3.89
2017-04-12T04:09:49.847Z,4.00
2017-04-12T04:10:47.747Z,3.57
2017-04-12T04:11:45.713Z,3.06
2017-04-12T04:12:43.609Z,3.97
2017-04-12T04:13:41.563Z,2.67
2017-04-12T04:14:39.493Z,3.79
2017-04-12T04:15:37.414Z,2.99
2017-04-12T04:16:35.312Z,2.67
2017-04-12T04:17:33.199Z,3.23
2017-04-12T04:18:31.126Z,3.04
2017-04-12T04:19:29.041Z,3.20
2017-04-12T04:20:26.967Z,3.13
2017-04-12T04:21:24.899Z,3.07
2017-04-12T04:22:22.795Z,4.39
2017-04-12T04:23:20.698Z,2.83
2017-04-12T04:24:18.603Z,3.09
2017-04-12T04:25:16.505Z,4.37
2017-04-12T04:26:14.411Z,2.84
2017-04-12T04:27:12.339Z,2.84
2017-04-12T04:28:10.228Z,3.01
2017-04-12T04:29:08.156Z,2.71
2017-04-12T04:30:06.063Z,4.00
2017-04-12T04:31:03.986Z,3.50
2017-04-12T04:32:01.943Z,3.57
2017-04-12T04:32:59.858Z,3.14
2017-04-12T04:33:57.751Z,2.64
2017-04-12T04:34:55.655Z,2.20
2017-04-12T04:35:53.685Z,3.04
2017-04-12T04:36:51.590Z,3.49
2017-04-12T04:37:49.493Z,3.04
2017-04-12T04:38:47.431Z,3.07
2017-04-12T04:39:45.393Z,3.17
2017-04-12T04:40:43.287Z,2.64
2017-04-12T04:41:41.315Z,2.71
2017-04-12T04:42:39.283Z,3.83
2017-04-12T04:43:37.163Z,2.63
2017-04-12T04:44:35.090Z,2.73
2017-04-12T04:45:33.001Z,2.83
2017-04-12T04:46:30.903Z,2.97
2017-04-12T04:47:28.787Z,3.60
2017-04-12T04:48:26.712Z,3.16
2017-04-12T04:49:24.983Z,2.90
2017-04-12T04:50:22.902Z,3.24
2017-04-12T04:51:20.794Z,2.34
2017-04-12T04:52:18.702Z,3.47
2017-04-12T04:53:16.611Z,3.34
2017-04-12T04:54:14.554Z,2.34
2017-04-12T04:55:12.460Z,2.60
2017-04-12T04:56:10.372Z,2.99
2017-04-12T04:57:08.298Z,2.44
2017-04-12T04:58:06.210Z,3.03
2017-04-12T04:59:04.163Z,2.73
2017-04-12T05:00:02.076Z,2.49
2017-04-12T05:00:59.980Z,3.01
2017-04-12T05:01:57.884Z,2.83
2017-04-12T05:02:55.794Z,2.43
2017-04-12T05:03:53.713Z,2.69
2017-04-12T05:04:51.612Z,2.39
2017-04-12T05:05:49.592Z,2.53
2017-04-12T05:06:47.523Z,3.00
2017-04-12T05:07:45.443Z,3.03
2017-04-12T05:08:43.343Z,2.91
2017-04-12T05:09:41.269Z,2.79
2017-04-12T05:10:39.272Z,2.89
2017-04-12T05:11:37.167Z,3.69
2017-04-12T05:12:35.077Z,2.66
2017-04-12T05:13:33.035Z,2.66
2017-04-12T05:14:30.922Z,2.83
2017-04-12T05:16:51.940Z,2.77
2017-04-12T05:18:02.282Z,2.30
2017-04-12T05:19:00.240Z,2.90
2017-04-12T05:19:58.163Z,2.57
2017-04-12T05:20:56.070Z,3.10
2017-04-12T05:21:53.995Z,2.86
2017-04-12T05:22:51.938Z,2.69
2017-04-12T05:23:49.914Z,2.94
2017-04-12T05:24:47.864Z,2.61
2017-04-12T05:25:45.783Z,3.00
2017-04-12T05:26:43.668Z,2.36
2017-04-12T05:27:41.564Z,2.74
2017-04-12T05:28:39.488Z,3.69
2017-04-12T05:29:37.388Z,3.33
2017-04-12T05:30:35.320Z,2.71
2017-04-12T05:31:33.234Z,2.57
2017-04-12T05:32:31.147Z,2.73
2017-04-12T05:33:29.146Z,2.40
2017-04-12T05:34:27.033Z,2.59
2017-04-12T05:35:24.925Z,2.37
2017-04-12T05:36:22.843Z,2.26
2017-04-12T05:37:20.809Z,3.46
2017-04-12T05:38:18.723Z,2.93
2017-04-12T05:39:16.659Z,2.29
2017-04-12T05:40:14.992Z,2.44
2017-04-12T05:41:13.350Z,2.64
2017-04-12T05:42:11.579Z,2.94
2017-04-12T05:43:09.978Z,3.67
2017-04-12T05:44:08.339Z,4.63
2017-04-12T05:45:06.762Z,5.86
2017-04-12T05:46:05.220Z,6.47
2017-04-12T05:47:03.574Z,5.23
2017-04-12T05:48:01.993Z,6.24
2017-04-12T05:49:00.365Z,6.13
2017-04-12T05:49:58.678Z,7.67
2017-04-12T05:50:57.255Z,9.70
2017-04-12T05:51:55.434Z,7.56
2017-04-12T05:52:53.641Z,7.47
2017-04-12T05:53:52.241Z,6.74
2017-04-12T05:54:50.692Z,7.99
2017-04-12T05:55:49.222Z,7.64
2017-04-12T05:56:47.491Z,11.43
2017-04-12T05:57:45.554Z,8.20
2017-04-12T05:58:43.894Z,10.30
2017-04-12T05:59:42.420Z,9.29
2017-04-12T06:00:40.678Z,10.89
2017-04-12T06:01:39.113Z,11.16
2017-04-12T06:02:37.078Z,10.23
2017-04-12T06:03:35.036Z,11.53
2017-04-12T06:04:33.150Z,9.79
2017-04-12T06:05:31.042Z,9.56
2017-04-12T06:06:28.943Z,11.46
2017-04-12T06:07:26.887Z,11.56
2017-04-12T06:08:24.910Z,13.71
2017-04-12T06:09:22.901Z,10.99
2017-04-12T06:10:20.834Z,13.91
2017-04-12T06:11:18.812Z,11.41
2017-04-12T06:12:16.772Z,12.54
2017-04-12T06:13:14.713Z,14.47
2017-04-12T06:14:12.687Z,15.90
2017-04-12T06:15:10.624Z,13.54
2017-04-12T06:16:08.552Z,13.61
2017-04-12T06:17:06.558Z,15.01
2017-04-12T06:18:04.571Z,14.51
2017-04-12T06:19:02.529Z,13.54
2017-04-12T06:20:00.531Z,14.76
2017-04-12T06:20:58.549Z,19.44
2017-04-12T06:21:56.626Z,13.67
2017-04-12T06:22:54.538Z,14.69
2017-04-12T06:23:52.506Z,14.10
2017-04-12T06:24:50.403Z,19.21
2017-04-12T06:25:48.391Z,13.26
2017-04-12T06:26:46.327Z,13.37
2017-04-12T06:27:44.263Z,14.31
2017-04-12T06:28:42.182Z,12.64
2017-04-12T06:29:40.110Z,13.84
2017-04-12T06:30:37.998Z,16.47
2017-04-12T06:31:35.947Z,14.61
2017-04-12T06:32:33.895Z,16.61
2017-04-12T06:33:31.820Z,16.04
2017-04-12T06:34:29.726Z,13.60
2017-04-12T06:35:27.681Z,14.24
2017-04-12T06:36:25.611Z,13.77
2017-04-12T06:37:23.531Z,15.33
2017-04-12T06:38:21.478Z,15.53
2017-04-12T06:39:19.411Z,16.13
2017-04-12T06:40:17.358Z,15.44
2017-04-12T06:41:15.452Z,16.13
2017-04-12T06:42:13.442Z,15.04
2017-04-12T06:43:11.331Z,15.77
2017-04-12T06:44:09.459Z,14.39
2017-04-12T06:45:07.360Z,12.87
2017-04-12T06:46:05.304Z,12.76
2017-04-12T06:47:03.222Z,13.01
2017-04-12T06:48:01.140Z,11.60
2017-04-12T06:48:59.103Z,12.41
2017-04-12T06:49:57.183Z,12.36
2017-04-12T06:50:55.091Z,12.84
2017-04-12T06:51:52.995Z,12.97
2017-04-12T06:52:51.023Z,14.46
2017-04-12T06:53:48.993Z,13.93
2017-04-12T06:54:46.948Z,13.29
2017-04-12T06:55:44.898Z,12.74
2017-04-12T06:56:42.820Z,11.59
2017-04-12T06:57:40.763Z,13.03
2017-04-12T06:58:38.739Z,13.10
2017-04-12T06:59:36.740Z,15.63
2017-04-12T07:00:34.691Z,13.96
2017-04-12T07:01:32.678Z,14.50
2017-04-12T07:02:30.595Z,15.39
2017-04-12T07:03:28.604Z,17.80
2017-04-12T07:04:26.718Z,11.36
2017-04-12T07:05:24.713Z,14.19
2017-04-12T07:06:22.650Z,12.66
2017-04-12T07:07:20.611Z,12.31
2017-04-12T07:08:18.569Z,12.24
2017-04-12T07:09:16.525Z,13.63
2017-04-12T07:10:14.432Z,12.89
2017-04-12T07:11:12.357Z,13.81
2017-04-12T07:12:10.299Z,11.79
2017-04-12T07:13:08.330Z,14.26
2017-04-12T07:14:06.286Z,14.87
2017-04-12T07:15:04.210Z,10.84
2017-04-12T07:16:02.180Z,11.70
2017-04-12T07:17:00.226Z,12.41
2017-04-12T07:17:58.167Z,8.76
2017-04-12T07:18:56.284Z,12.06
2017-04-12T07:19:54.179Z,10.64
2017-04-12T07:20:52.201Z,11.21
2017-04-12T07:21:50.119Z,12.24
2017-04-12T07:22:48.046Z,16.80
2017-04-12T07:23:46.010Z,11.47
2017-04-12T07:24:43.910Z,12.54
2017-04-12T07:27:04.893Z,8.49
2017-04-12T07:28:02.843Z,10.16
2017-04-12T07:29:00.787Z,11.17
2017-04-12T07:29:58.816Z,10.59
2017-04-12T07:30:56.713Z,9.14
2017-04-12T07:31:54.666Z,10.27
2017-04-12T07:32:52.623Z,8.50
2017-04-12T07:33:50.584Z,7.74
2017-04-12T07:34:48.544Z,10.36
2017-04-12T07:35:46.468Z,7.83
2017-04-12T07:36:44.464Z,11.50
2017-04-12T07:37:42.425Z,9.24
2017-04-12T07:38:40.376Z,7.79
2017-04-12T07:39:38.292Z,9.00
2017-04-12T07:40:36.218Z,8.26
2017-04-12T07:41:34.323Z,6.34
2017-04-12T07:42:32.323Z,6.69
2017-04-12T07:43:30.272Z,7.01
2017-04-12T07:44:28.302Z,7.16
2017-04-12T07:45:26.259Z,7.99
2017-04-12T07:46:24.116Z,7.49
2017-04-12T07:47:22.027Z,6.99
2017-04-12T07:48:19.936Z,6.96
2017-04-12T07:49:17.848Z,9.41
2017-04-12T07:50:15.910Z,6.69
2017-04-12T07:51:13.943Z,8.06
2017-04-12T07:52:11.912Z,9.34
2017-04-12T07:53:09.817Z,6.83
2017-04-12T07:54:07.727Z,6.56
2017-04-12T07:55:05.627Z,7.44
2017-04-12T07:57:26.348Z,8.49
2017-04-12T07:58:24.267Z,7.59
2017-04-12T07:59:22.204Z,6.53
2017-04-12T08:00:20.219Z,6.13
2017-04-12T08:01:18.118Z,6.17
2017-04-12T08:02:16.063Z,8.93
2017-04-12T08:03:14.035Z,5.09
2017-04-12T08:04:11.939Z,6.87
2017-04-12T08:05:09.960Z,6.94
2017-04-12T08:06:08.045Z,6.87
2017-04-12T08:07:05.970Z,5.36
2017-04-12T08:08:03.884Z,7.17
2017-04-12T08:09:01.775Z,4.56
2017-04-12T08:09:59.714Z,6.01
2017-04-12T08:10:57.702Z,5.59
2017-04-12T08:11:55.679Z,4.53
2017-04-12T08:12:53.627Z,5.40
2017-04-12T08:13:51.575Z,6.90
2017-04-12T08:14:49.475Z,4.96
2017-04-12T08:15:47.402Z,6.43
2017-04-12T08:16:45.344Z,4.64
2017-04-12T08:17:43.344Z,7.46
2017-04-12T08:18:41.262Z,6.87
2017-04-12T08:19:39.194Z,4.73
2017-04-12T08:20:37.111Z,5.94
2017-04-12T08:21:35.163Z,6.54
2017-04-12T08:22:33.106Z,5.74
2017-04-12T08:23:31.204Z,6.36
2017-04-12T08:24:29.137Z,4.54
2017-04-12T08:25:27.119Z,6.79
2017-04-12T08:26:25.040Z,4.31
2017-04-12T08:27:23.021Z,5.63
2017-04-12T08:28:20.968Z,5.23
2017-04-12T08:29:18.880Z,4.90
2017-04-12T08:30:16.772Z,8.74
2017-04-12T08:31:14.679Z,4.24
2017-04-12T08:32:12.588Z,5.99
2017-04-12T08:33:10.660Z,6.71
2017-04-12T08:34:08.608Z,5.60
2017-04-12T08:35:06.505Z,4.64
2017-04-12T08:37:27.537Z,5.34
2017-04-12T08:38:25.454Z,5.37
2017-04-12T08:39:23.366Z,6.30
2017-04-12T08:40:21.255Z,5.90
2017-04-12T08:41:19.220Z,5.64
2017-04-12T08:42:17.265Z,5.46
2017-04-12T08:43:15.196Z,5.44
2017-04-12T08:44:13.142Z,6.71
2017-04-12T08:45:11.041Z,4.47
2017-04-12T08:46:09.003Z,4.17
2017-04-12T08:47:07.003Z,4.43
2017-04-12T08:48:04.935Z,5.43
2017-04-12T08:49:06.728Z,3.71
2017-04-12T08:50:04.751Z,4.24
2017-04-12T08:51:02.696Z,5.27
2017-04-12T08:52:00.634Z,4.60
2017-04-12T08:52:58.704Z,3.73
2017-04-12T08:53:56.673Z,6.23
2017-04-12T08:54:54.566Z,5.24
2017-04-12T08:55:52.501Z,4.43
2017-04-12T08:56:50.446Z,4.66
2017-04-12T08:57:48.408Z,6.03
2017-04-12T08:58:46.298Z,3.70
2017-04-12T08:59:44.247Z,6.37
2017-04-12T09:00:42.184Z,4.79
2017-04-12T09:01:40.143Z,4.03
2017-04-12T09:02:38.087Z,4.51
2017-04-12T09:03:36.009Z,4.46
2017-04-12T09:04:33.933Z,3.99
2017-04-12T09:05:31.879Z,6.64
2017-04-12T09:06:29.927Z,4.80
2017-04-12T09:07:27.947Z,5.41
2017-04-12T09:08:25.839Z,4.66
2017-04-12T09:09:23.848Z,4.24
2017-04-12T09:10:21.823Z,5.44
2017-04-12T09:12:39.601Z,6.70
2017-04-12T09:13:38.077Z,4.64
2017-04-12T09:14:36.044Z,4.40
2017-04-12T09:15:33.989Z,5.69
2017-04-12T09:16:32.015Z,4.59
2017-04-12T09:17:30.009Z,4.60
2017-04-12T09:18:27.955Z,4.66
2017-04-12T09:19:25.935Z,3.99
2017-04-12T09:20:23.870Z,6.23
2017-04-12T09:21:21.843Z,3.80
2017-04-12T09:22:19.791Z,3.54
2017-04-12T09:23:17.744Z,4.44
2017-04-12T09:24:15.714Z,3.53
2017-04-12T09:25:14.107Z,4.46
2017-04-12T09:26:12.042Z,5.63
2017-04-12T09:27:10.012Z,5.04
2017-04-12T09:28:07.908Z,4.07
2017-04-12T09:29:05.838Z,3.60
2017-04-12T09:30:03.847Z,5.31
2017-04-12T09:31:01.845Z,3.97
2017-04-12T09:31:59.829Z,5.00
2017-04-12T09:32:57.749Z,4.14
2017-04-12T09:33:57.232Z,3.24
2017-04-12T09:34:55.185Z,3.07
2017-04-12T09:35:53.164Z,4.56
2017-04-12T09:36:51.231Z,3.41
2017-04-12T09:37:49.168Z,4.14
2017-04-12T09:38:47.085Z,5.20
2017-04-12T09:39:45.029Z,5.23
2017-04-12T09:40:43.092Z,4.86
2017-04-12T09:41:40.996Z,3.06
2017-04-12T09:42:38.909Z,3.46
2017-04-12T09:43:36.840Z,2.54
2017-04-12T09:44:34.775Z,4.87
2017-04-12T09:45:32.708Z,3.84
2017-04-12T09:46:30.627Z,4.39
2017-04-12T09:47:28.645Z,5.46
2017-04-12T09:48:26.619Z,4.24
2017-04-12T09:49:24.670Z,3.11
2017-04-12T09:50:22.657Z,4.16
2017-04-12T09:51:20.589Z,4.83
2017-04-12T09:52:18.537Z,3.39
2017-04-12T09:53:16.453Z,4.61
2017-04-12T09:54:14.359Z,2.61
2017-04-12T09:55:12.389Z,5.37
2017-04-12T09:56:10.319Z,3.44
2017-04-12T09:57:08.255Z,3.59
2017-04-12T09:58:06.197Z,2.93
2017-04-12T09:59:04.172Z,5.77
2017-04-12T10:00:02.185Z,5.37
2017-04-12T10:01:00.098Z,5.87
2017-04-12T10:01:58.042Z,5.30
2017-04-12T10:02:56.010Z,2.89
2017-04-12T10:03:54.018Z,3.74
2017-04-12T10:04:52.003Z,4.24
2017-04-12T10:05:49.975Z,2.09
2017-04-12T10:06:47.982Z,4.33
2017-04-12T10:07:45.909Z,6.11
2017-04-12T10:08:43.795Z,2.86
2017-04-12T10:09:41.722Z,2.73
2017-04-12T10:10:39.652Z,2.89
2017-04-12T10:11:37.639Z,2.83
2017-04-12T10:12:35.593Z,5.24
2017-04-12T10:13:33.507Z,3.33
2017-04-12T10:14:31.436Z,5.71
2017-04-12T10:15:29.354Z,5.10
2017-04-12T10:16:27.327Z,5.14
2017-04-12T10:17:25.306Z,3.10
2017-04-12T10:18:23.232Z,2.11
2017-04-12T10:19:21.132Z,3.86
2017-04-12T10:21:53.594Z,2.79
2017-04-12T10:22:51.520Z,2.99
2017-04-12T10:23:49.450Z,7.31
2017-04-12T10:24:47.483Z,3.64
2017-04-12T10:25:45.430Z,2.66
2017-04-12T10:26:43.404Z,3.51
2017-04-12T10:27:41.328Z,6.49
2017-04-12T10:28:39.278Z,3.16
2017-04-12T10:29:37.202Z,2.73
2017-04-12T10:30:35.165Z,2.30
2017-04-12T10:31:33.123Z,2.71
2017-04-12T10:32:31.043Z,3.80
2017-04-12T10:33:29.037Z,4.54
2017-04-12T10:34:26.954Z,3.07
2017-04-12T10:35:24.976Z,3.30
2017-04-12T10:36:23.076Z,3.53
2017-04-12T10:37:21.275Z,3.06
2017-04-12T10:38:19.276Z,4.10
2017-04-12T10:39:17.258Z,3.73
2017-04-12T10:40:15.314Z,6.06
2017-04-12T10:41:13.527Z,2.31
2017-04-12T10:42:11.427Z,3.63
2017-04-12T10:43:09.371Z,2.41
2017-04-12T10:44:07.308Z,2.39
2017-04-12T10:45:05.238Z,2.14
2017-04-12T10:46:03.202Z,3.23
2017-04-12T10:47:01.192Z,4.57
2017-04-12T10:47:59.170Z,3.66
2017-04-12T10:48:57.115Z,2.46
2017-04-12T10:49:55.040Z,4.04
2017-04-12T10:50:53.113Z,5.60
2017-04-12T10:51:51.028Z,2.49
2017-04-12T10:52:49.030Z,3.16
2017-04-12T10:53:46.946Z,2.51
2017-04-12T10:54:44.848Z,3.47
2017-04-12T10:55:42.751Z,2.89
2017-04-12T10:56:40.837Z,3.16
2017-04-12T10:57:38.778Z,2.34
2017-04-12T10:58:36.722Z,2.29
2017-04-12T10:59:34.676Z,2.21
2017-04-12T11:00:32.633Z,3.76
2017-04-12T11:05:38.981Z,4.46
2017-04-12T11:06:36.940Z,5.09
2017-04-12T11:07:34.903Z,4.10
2017-04-12T11:08:32.909Z,4.37
2017-04-12T11:09:31.021Z,3.36
2017-04-12T11:10:28.934Z,2.37
2017-04-12T11:11:27.046Z,2.66
2017-04-12T11:12:25.052Z,3.59
2017-04-12T11:13:23.064Z,5.43
2017-04-12T11:14:20.999Z,3.56
2017-04-12T11:15:19.071Z,2.81
2017-04-12T11:16:17.039Z,3.74
2017-04-12T11:17:15.293Z,4.61
2017-04-12T11:18:13.227Z,2.60
2017-04-12T11:19:11.147Z,5.57
2017-04-12T11:20:09.132Z,4.77
2017-04-12T11:21:07.188Z,3.30
2017-04-12T11:22:05.145Z,3.11
2017-04-12T11:23:03.099Z,3.31
2017-04-12T11:24:01.011Z,5.40
2017-04-12T11:24:58.987Z,3.86
2017-04-12T11:25:56.874Z,4.79
2017-04-12T11:26:54.893Z,5.84
2017-04-12T11:27:52.803Z,2.89
2017-04-12T11:28:50.855Z,3.86
2017-04-12T11:29:48.796Z,2.27
2017-04-12T11:30:47.195Z,2.49
2017-04-12T11:31:45.132Z,3.04
2017-04-12T11:32:43.040Z,5.04
2017-04-12T11:33:40.975Z,2.37
2017-04-12T11:34:38.911Z,3.33
2017-04-12T11:35:36.890Z,3.60
2017-04-12T11:36:34.808Z,2.30
2017-04-12T11:37:32.839Z,5.61
2017-04-12T11:38:30.813Z,2.70
2017-04-12T11:39:28.809Z,2.24
2017-04-12T11:40:26.823Z,3.04
2017-04-12T11:41:24.769Z,2.93
2017-04-12T11:42:39.538Z,3.67
2017-04-12T11:43:37.511Z,5.40
2017-04-12T11:44:35.450Z,3.91
2017-04-12T11:45:33.438Z,4.26
2017-04-12T11:46:31.480Z,3.90
2017-04-12T11:47:29.513Z,3.94
2017-04-12T11:48:27.489Z,3.31
2017-04-12T11:49:25.453Z,3.30
2017-04-12T11:50:23.424Z,3.34
2017-04-12T11:51:21.353Z,3.24
2017-04-12T11:52:19.276Z,4.57
2017-04-12T11:53:17.251Z,3.81
2017-04-12T11:54:15.217Z,6.63
2017-04-12T11:55:13.153Z,5.26
2017-04-12T11:56:11.106Z,3.56
2017-04-12T11:57:09.047Z,3.16
2017-04-12T11:58:07.119Z,2.23
2017-04-12T11:59:05.148Z,4.41
2017-04-12T12:00:03.045Z,2.17
2017-04-12T12:01:01.125Z,3.77
2017-04-12T12:03:21.946Z,4.57
2017-04-12T12:04:19.871Z,5.31
2017-04-12T12:05:17.821Z,3.19
2017-04-12T12:06:15.807Z,5.27
2017-04-12T12:07:13.750Z,3.30
2017-04-12T12:08:11.733Z,6.39
2017-04-12T12:09:09.664Z,6.90
2017-04-12T12:10:07.720Z,5.34
2017-04-12T12:11:05.639Z,2.80
2017-04-12T12:12:03.635Z,5.93
2017-04-12T12:13:01.531Z,5.41
2017-04-12T12:13:59.494Z,5.43
2017-04-12T12:14:57.455Z,3.10
2017-04-12T12:15:55.472Z,2.56
2017-04-12T12:16:53.435Z,6.79
2017-04-12T12:17:51.416Z,2.50
2017-04-12T12:18:49.352Z,5.53
2017-04-12T12:19:47.371Z,3.46
2017-04-12T12:20:45.338Z,2.60
2017-04-12T12:21:43.352Z,3.89
2017-04-12T12:22:41.265Z,3.26
2017-04-12T12:23:39.275Z,3.76
2017-04-12T12:24:37.317Z,2.84
2017-04-12T12:25:35.268Z,3.31
2017-04-12T12:26:33.347Z,6.73
2017-04-12T12:27:31.285Z,5.74
2017-04-12T12:28:29.242Z,4.96
2017-04-12T12:29:27.240Z,3.34
2017-04-12T12:30:25.164Z,2.40
2017-04-12T12:31:23.122Z,6.80
2017-04-12T12:32:21.076Z,2.60
2017-04-12T12:33:19.069Z,5.60
2017-04-12T12:34:17.005Z,8.24
2017-04-12T12:35:14.954Z,5.00
2017-04-12T12:36:13.032Z,4.27
2017-04-12T12:37:10.985Z,3.74
2017-04-12T12:38:08.945Z,4.40
2017-04-12T12:39:06.999Z,6.44
2017-04-12T12:40:04.915Z,3.29
2017-04-12T12:41:03.422Z,3.33
2017-04-12T12:42:01.390Z,4.61
2017-04-12T12:42:59.344Z,6.94
2017-04-12T12:43:57.251Z,4.21
2017-04-12T12:44:55.300Z,4.06
2017-04-12T12:45:53.283Z,3.44
2017-04-12T12:46:51.276Z,8.20
2017-04-12T12:47:49.268Z,5.43
2017-04-12T12:48:47.191Z,5.10
2017-04-12T12:49:45.165Z,5.81
2017-04-12T12:50:43.148Z,4.76
2017-04-12T12:51:41.108Z,5.70
2017-04-12T12:52:39.164Z,3.51
2017-04-12T12:53:37.094Z,4.40
2017-04-12T12:54:35.119Z,4.66
2017-04-12T12:55:33.078Z,5.17
2017-04-12T12:56:31.552Z,7.04
2017-04-12T12:57:29.609Z,4.26
2017-04-12T12:58:27.707Z,3.59
2017-04-12T12:59:25.796Z,3.14
2017-04-12T13:00:23.828Z,3.30
2017-04-12T13:01:21.827Z,2.40
2017-04-12T13:02:19.820Z,4.86
2017-04-12T13:03:17.820Z,3.19
2017-04-12T13:04:15.795Z,2.83
2017-04-12T13:05:13.773Z,5.71
2017-04-12T13:06:11.789Z,3.01
2017-04-12T13:07:09.767Z,2.83